createdAt,value
2018-10-18T00:01:40.175Z,8.90
2018-10-18T00:04:09.389Z,9.03
2018-10-18T00:06:38.106Z,8.27
2018-10-18T00:09:09.189Z,8.57
2018-10-18T00:11:37.933Z,11.07
2018-10-18T00:14:06.714Z,9.97
2018-10-18T00:16:35.363Z,9.53
2018-10-18T00:19:03.964Z,7.77
2018-10-18T00:21:32.536Z,7.67
2018-10-18T00:24:01.219Z,8.47
2018-10-18T00:26:29.860Z,8.03
2018-10-18T00:28:58.683Z,7.97
2018-10-18T00:31:27.532Z,8.27
2018-10-18T00:33:56.146Z,8.40
2018-10-18T00:36:24.884Z,8.83
2018-10-18T00:38:53.538Z,8.47
2018-10-18T00:41:22.160Z,8.80
2018-10-18T00:43:50.748Z,10.77
2018-10-18T00:46:19.339Z,8.90
2018-10-18T00:48:48.027Z,9.30
2018-10-18T00:51:17.403Z,10.33
2018-10-18T00:53:46.060Z,9.33
2018-10-18T00:56:14.736Z,9.00
2018-10-18T00:58:43.459Z,7.40
2018-10-18T01:01:12.129Z,10.20
2018-10-18T01:03:40.797Z,8.77
2018-10-18T01:06:09.606Z,9.17
2018-10-18T01:08:38.540Z,8.23
2018-10-18T01:11:08.271Z,8.90
2018-10-18T01:13:36.909Z,9.43
2018-10-18T01:16:05.967Z,8.57
2018-10-18T01:18:34.674Z,8.60
2018-10-18T01:21:03.335Z,7.67
2018-10-18T01:23:32.622Z,8.13
2018-10-18T01:26:01.678Z,8.23
2018-10-18T01:28:30.457Z,8.90
2018-10-18T01:30:59.192Z,8.33
2018-10-18T01:33:28.830Z,7.37
2018-10-18T01:35:57.528Z,7.77
2018-10-18T01:38:26.890Z,7.73
2018-10-18T01:40:55.619Z,8.33
2018-10-18T01:43:24.326Z,10.37
2018-10-18T01:45:52.992Z,9.40
2018-10-18T01:48:21.723Z,7.73
2018-10-18T01:50:50.410Z,8.00
2018-10-18T01:53:19.024Z,7.77
2018-10-18T01:55:47.763Z,7.03
2018-10-18T01:58:16.328Z,7.00
2018-10-18T02:00:45.002Z,11.53
2018-10-18T02:03:13.624Z,7.83
2018-10-18T02:05:42.822Z,7.77
2018-10-18T02:08:11.710Z,8.17
2018-10-18T02:10:40.148Z,7.80
2018-10-18T02:13:08.777Z,8.17
2018-10-18T02:15:37.515Z,7.83
2018-10-18T02:18:06.368Z,7.83
2018-10-18T02:20:34.874Z,7.97
2018-10-18T02:23:04.065Z,8.00
2018-10-18T02:25:32.752Z,8.33
2018-10-18T02:28:01.400Z,8.97
2018-10-18T02:30:30.112Z,8.07
2018-10-18T02:32:58.788Z,8.17
2018-10-18T02:35:27.493Z,11.07
2018-10-18T02:37:56.260Z,9.10
2018-10-18T02:40:24.798Z,9.83
2018-10-18T02:42:53.498Z,11.00
2018-10-18T02:45:22.120Z,10.00
2018-10-18T02:47:50.812Z,11.30
2018-10-18T02:50:19.439Z,9.80
2018-10-18T02:52:48.096Z,15.33
2018-10-18T02:55:16.857Z,9.80
2018-10-18T02:57:45.548Z,10.00
2018-10-18T03:00:14.453Z,11.53
2018-10-18T03:02:43.036Z,13.13
2018-10-18T03:05:11.926Z,8.97
2018-10-18T03:07:40.610Z,8.47
2018-10-18T03:10:09.377Z,8.87
2018-10-18T03:12:38.083Z,15.13
2018-10-18T03:15:07.865Z,12.87
2018-10-18T03:17:36.465Z,13.70
2018-10-18T03:20:05.171Z,10.53
2018-10-18T03:22:33.881Z,10.20
2018-10-18T03:25:02.505Z,9.07
2018-10-18T03:27:31.196Z,8.83
2018-10-18T03:29:59.840Z,11.47
2018-10-18T03:32:29.446Z,16.10
2018-10-18T03:34:58.041Z,9.77
2018-10-18T03:37:26.684Z,9.47
2018-10-18T03:39:55.370Z,8.93
2018-10-18T03:42:23.993Z,10.47
2018-10-18T03:44:52.554Z,10.07
2018-10-18T03:47:21.126Z,8.97
2018-10-18T03:49:49.716Z,10.97
2018-10-18T03:52:18.445Z,11.50
2018-10-18T03:54:47.012Z,10.40
2018-10-18T03:57:16.314Z,9.43
2018-10-18T03:59:44.960Z,8.37
2018-10-18T04:02:13.825Z,13.23
2018-10-18T04:04:42.574Z,13.83
2018-10-18T04:07:11.336Z,9.90
2018-10-18T04:09:39.927Z,13.07
2018-10-18T04:12:09.218Z,11.93
2018-10-18T04:14:37.765Z,13.07
2018-10-18T04:17:06.362Z,8.10
2018-10-18T04:19:35.004Z,11.43
2018-10-18T04:22:03.619Z,9.97
2018-10-18T04:24:32.333Z,8.07
2018-10-18T04:27:00.959Z,9.47
2018-10-18T04:29:29.628Z,10.77
2018-10-18T04:31:58.385Z,16.37
2018-10-18T04:34:27.026Z,12.83
2018-10-18T04:36:55.774Z,10.43
2018-10-18T04:39:24.529Z,9.97
2018-10-18T04:41:53.224Z,14.33
2018-10-18T04:44:21.776Z,10.37
2018-10-18T04:46:51.195Z,12.03
2018-10-18T04:49:20.011Z,8.10
2018-10-18T04:51:48.670Z,9.73
2018-10-18T04:54:18.481Z,14.50
2018-10-18T04:56:47.896Z,11.33
2018-10-18T04:59:16.673Z,12.30
2018-10-18T05:01:45.294Z,10.97
2018-10-18T05:04:13.901Z,12.50
2018-10-18T05:06:43.096Z,13.13
2018-10-18T05:09:11.813Z,10.20
2018-10-18T05:11:40.540Z,16.83
2018-10-18T05:14:09.148Z,11.10
2018-10-18T05:16:37.878Z,11.33
2018-10-18T05:19:06.712Z,11.67
2018-10-18T05:21:35.286Z,11.63
2018-10-18T05:24:04.313Z,11.23
2018-10-18T05:26:32.980Z,12.13
2018-10-18T05:29:01.691Z,10.90
2018-10-18T05:31:30.421Z,11.03
2018-10-18T05:33:59.260Z,11.93
2018-10-18T05:36:27.948Z,11.57
2018-10-18T05:38:56.622Z,10.50
2018-10-18T05:41:25.290Z,11.70
2018-10-18T05:43:53.952Z,10.13
2018-10-18T05:46:22.599Z,11.33
2018-10-18T05:48:56.534Z,10.17
2018-10-18T05:51:25.766Z,9.27
2018-10-18T05:54:00.026Z,12.80
2018-10-18T05:56:30.166Z,15.20
2018-10-18T05:58:59.599Z,13.67
2018-10-18T06:01:28.218Z,15.10
2018-10-18T06:03:56.806Z,15.40
2018-10-18T06:06:25.407Z,15.80
2018-10-18T06:08:54.683Z,11.17
2018-10-18T06:11:26.788Z,12.37
2018-10-18T06:13:58.039Z,13.33
2018-10-18T06:16:26.842Z,15.43
2018-10-18T06:18:55.570Z,11.80
2018-10-18T06:21:24.619Z,11.10
2018-10-18T06:23:53.367Z,10.57
2018-10-18T06:26:22.110Z,10.47
2018-10-18T06:28:51.426Z,13.97
2018-10-18T06:31:20.240Z,11.33
2018-10-18T06:33:49.205Z,13.97
2018-10-18T06:36:17.801Z,12.97
2018-10-18T06:38:46.446Z,13.73
2018-10-18T06:41:15.302Z,13.83
2018-10-18T06:43:43.843Z,17.57
2018-10-18T06:46:13.598Z,15.13
2018-10-18T06:48:42.734Z,11.43
2018-10-18T06:51:11.581Z,13.43
2018-10-18T06:53:41.049Z,15.60
2018-10-18T06:56:09.850Z,15.03
2018-10-18T06:58:38.554Z,11.33
2018-10-18T07:01:07.787Z,14.73
2018-10-18T07:03:36.500Z,14.80
2018-10-18T07:06:05.438Z,16.33
2018-10-18T07:08:34.169Z,13.97
2018-10-18T07:11:03.028Z,17.17
2018-10-18T07:13:31.567Z,13.97
2018-10-18T07:16:00.169Z,12.87
2018-10-18T07:18:28.841Z,15.43
2018-10-18T07:20:57.572Z,14.53
2018-10-18T07:23:26.258Z,16.13
2018-10-18T07:25:55.034Z,12.20
2018-10-18T07:28:24.259Z,12.23
2018-10-18T07:30:53.117Z,13.07
2018-10-18T07:33:21.869Z,12.30
2018-10-18T07:35:50.611Z,10.03
2018-10-18T07:38:19.326Z,13.83
2018-10-18T07:40:47.964Z,15.20
2018-10-18T07:43:17.674Z,9.33
2018-10-18T07:45:46.357Z,14.50
2018-10-18T07:48:15.227Z,12.87
2018-10-18T07:50:43.947Z,15.37
2018-10-18T07:53:12.785Z,17.07
2018-10-18T07:55:41.937Z,12.70
2018-10-18T07:58:10.626Z,16.37
2018-10-18T08:00:39.483Z,15.00
2018-10-18T08:03:08.100Z,11.87
2018-10-18T08:05:36.884Z,14.53
2018-10-18T08:08:05.863Z,10.73
2018-10-18T08:10:34.696Z,10.73
2018-10-18T08:13:03.659Z,12.10
2018-10-18T08:15:32.681Z,10.80
2018-10-18T08:18:01.679Z,12.33
2018-10-18T08:20:30.971Z,14.17
2018-10-18T08:22:59.717Z,9.27
2018-10-18T08:25:28.554Z,14.33
2018-10-18T08:27:57.357Z,11.53
2018-10-18T08:30:26.217Z,8.00
2018-10-18T08:32:54.962Z,11.97
2018-10-18T08:35:23.759Z,13.00
2018-10-18T08:37:52.744Z,7.23
2018-10-18T08:40:21.361Z,14.60
2018-10-18T08:42:50.796Z,10.80
2018-10-18T08:45:19.618Z,10.07
2018-10-18T08:47:48.421Z,7.17
2018-10-18T08:50:17.297Z,16.03
2018-10-18T08:52:46.093Z,13.57
2018-10-18T08:55:14.940Z,10.30
2018-10-18T08:57:43.745Z,9.87
2018-10-18T09:00:13.196Z,10.90
2018-10-18T09:02:42.644Z,9.67
2018-10-18T09:05:11.466Z,10.23
2018-10-18T09:07:40.274Z,11.83
2018-10-18T09:10:09.315Z,8.93
2018-10-18T09:12:43.905Z,9.83
2018-10-18T09:15:16.620Z,7.30
2018-10-18T09:17:45.929Z,7.07
2018-10-18T09:20:14.747Z,8.90
2018-10-18T09:22:43.615Z,6.90
2018-10-18T09:25:12.695Z,8.83
2018-10-18T09:27:41.965Z,6.63
2018-10-18T09:30:12.227Z,8.53
2018-10-18T09:32:40.979Z,9.50
2018-10-18T09:35:09.582Z,10.30
2018-10-18T09:37:38.397Z,10.53
2018-10-18T09:40:08.379Z,8.57
2018-10-18T09:42:37.273Z,11.43
2018-10-18T09:45:10.998Z,7.90
2018-10-18T09:47:41.249Z,7.37
2018-10-18T09:50:11.154Z,10.13
2018-10-18T09:52:39.810Z,7.10
2018-10-18T09:55:10.470Z,13.33
2018-10-18T09:57:39.054Z,7.17
2018-10-18T10:00:12.728Z,9.13
2018-10-18T10:02:46.802Z,10.50
2018-10-18T10:05:15.519Z,5.87
2018-10-18T10:07:44.248Z,9.03
2018-10-18T10:10:12.946Z,9.47
2018-10-18T10:12:41.639Z,10.23
2018-10-18T10:15:10.827Z,5.97
2018-10-18T10:17:39.464Z,10.00
2018-10-18T10:20:08.135Z,7.17
2018-10-18T10:22:36.957Z,5.57
2018-10-18T10:25:06.609Z,12.03
2018-10-18T10:27:36.114Z,5.60
2018-10-18T10:30:05.529Z,6.07
2018-10-18T10:32:34.491Z,6.57
2018-10-18T10:35:03.231Z,10.60
2018-10-18T10:37:32.010Z,6.07
2018-10-18T10:40:00.733Z,6.37
2018-10-18T10:42:33.447Z,9.97
2018-10-18T10:45:06.050Z,8.80
2018-10-18T10:47:35.004Z,7.30
2018-10-18T10:50:03.742Z,8.77
2018-10-18T10:52:32.686Z,5.70
2018-10-18T10:55:01.540Z,5.37
2018-10-18T10:57:30.543Z,7.43
2018-10-18T11:00:00.045Z,8.70
2018-10-18T11:02:28.665Z,4.70
2018-10-18T11:04:58.248Z,6.80
2018-10-18T11:07:27.102Z,6.70
2018-10-18T11:09:56.759Z,5.13
2018-10-18T11:12:25.621Z,7.23
2018-10-18T11:14:54.320Z,6.67
2018-10-18T11:17:23.049Z,7.63
2018-10-18T11:19:51.874Z,8.53
2018-10-18T11:22:20.603Z,4.77
2018-10-18T11:24:49.521Z,6.93
2018-10-18T11:27:19.296Z,4.40
2018-10-18T11:29:47.897Z,8.77
2018-10-18T11:32:16.736Z,8.90
2018-10-18T11:34:45.488Z,5.97
2018-10-18T11:37:14.131Z,5.57
2018-10-18T11:39:43.040Z,4.60
2018-10-18T11:42:11.786Z,5.63
2018-10-18T11:44:41.333Z,6.13
2018-10-18T11:47:11.932Z,6.87
2018-10-18T11:49:41.480Z,5.93
2018-10-18T11:52:10.353Z,5.93
2018-10-18T11:54:38.914Z,5.17
2018-10-18T11:57:07.645Z,8.13
2018-10-18T11:59:36.341Z,7.13
2018-10-18T12:02:06.406Z,9.43
2018-10-18T12:04:35.189Z,8.23
2018-10-18T12:07:03.921Z,5.97
2018-10-18T12:09:36.992Z,7.57
2018-10-18T12:12:06.071Z,5.83
2018-10-18T12:14:35.636Z,4.83
2018-10-18T12:17:04.832Z,7.87
2018-10-18T12:19:33.558Z,8.87
2018-10-18T12:22:02.290Z,5.63
2018-10-18T12:24:30.972Z,5.50
2018-10-18T12:26:59.809Z,5.67
2018-10-18T12:29:28.934Z,5.60
2018-10-18T12:31:57.660Z,8.10
2018-10-18T12:34:26.447Z,5.07
2018-10-18T12:36:55.326Z,5.87
2018-10-18T12:39:24.101Z,6.10
2018-10-18T12:41:52.851Z,5.40
2018-10-18T12:44:21.581Z,5.37
2018-10-18T12:46:50.435Z,5.33
2018-10-18T12:49:19.154Z,7.33
2018-10-18T12:51:47.834Z,5.73
2018-10-18T12:54:16.945Z,7.33
2018-10-18T12:56:45.924Z,7.63
2018-10-18T12:59:14.751Z,8.13
2018-10-18T13:01:43.494Z,5.70
2018-10-18T13:04:12.251Z,5.30
2018-10-18T13:06:40.971Z,6.73
2018-10-18T13:09:10.442Z,4.70
2018-10-18T13:11:39.184Z,4.13
2018-10-18T13:14:07.770Z,5.40
2018-10-18T13:16:36.514Z,3.50
2018-10-18T13:19:05.428Z,5.70
2018-10-18T13:21:34.598Z,4.27
2018-10-18T13:24:03.426Z,3.47
2018-10-18T13:26:32.029Z,3.57
2018-10-18T13:29:00.806Z,4.90
2018-10-18T13:31:29.464Z,5.60
2018-10-18T13:33:58.157Z,4.03
2018-10-18T13:36:26.991Z,2.60
2018-10-18T13:38:55.668Z,3.67
2018-10-18T13:41:24.488Z,4.77
2018-10-18T13:43:53.244Z,5.30
2018-10-18T13:46:22.854Z,6.90
2018-10-18T13:48:51.528Z,9.13
2018-10-18T13:51:21.008Z,3.13
2018-10-18T13:53:49.790Z,4.47
2018-10-18T13:56:18.673Z,5.83
2018-10-18T13:58:48.127Z,6.83
2018-10-18T14:01:16.952Z,3.77
2018-10-18T14:03:45.678Z,6.00
2018-10-18T14:06:14.359Z,7.73
2018-10-18T14:08:43.613Z,7.17
2018-10-18T14:11:12.304Z,6.13
2018-10-18T14:13:41.635Z,4.33
2018-10-18T14:16:10.725Z,3.70
2018-10-18T14:18:39.538Z,3.80
2018-10-18T14:21:09.523Z,5.57
2018-10-18T14:23:39.040Z,4.87
2018-10-18T14:26:07.755Z,6.80
2018-10-18T14:28:36.446Z,5.00
2018-10-18T14:31:05.197Z,4.47
2018-10-18T14:33:33.934Z,4.00
2018-10-18T14:36:02.574Z,6.50
2018-10-18T14:38:31.279Z,5.03
2018-10-18T14:41:00.061Z,8.93
2018-10-18T14:43:28.834Z,5.83
2018-10-18T14:45:57.579Z,6.17
2018-10-18T14:48:27.568Z,5.50
2018-10-18T14:50:56.390Z,4.80
2018-10-18T14:53:25.163Z,7.30
2018-10-18T14:55:54.051Z,3.03
2018-10-18T14:58:22.761Z,4.50
2018-10-18T15:00:51.509Z,4.23
2018-10-18T15:03:21.164Z,4.03
2018-10-18T15:05:49.911Z,5.90
2018-10-18T15:08:18.611Z,7.00
2018-10-18T15:10:47.263Z,5.57
2018-10-18T15:13:16.056Z,4.07
2018-10-18T15:15:44.710Z,6.17
2018-10-18T15:18:13.588Z,4.33
2018-10-18T15:20:42.293Z,6.90
2018-10-18T15:23:10.881Z,6.20
2018-10-18T15:25:39.671Z,4.10
2018-10-18T15:28:08.224Z,6.60
2018-10-18T15:30:36.991Z,3.67
2018-10-18T15:33:05.702Z,6.67
2018-10-18T15:35:35.513Z,5.13
2018-10-18T15:38:04.408Z,4.83
2018-10-18T15:40:33.000Z,3.60
2018-10-18T15:43:01.694Z,7.40
2018-10-18T15:45:30.556Z,4.40
2018-10-18T15:47:59.303Z,6.63
2018-10-18T15:50:28.281Z,5.07
2018-10-18T15:52:57.121Z,7.43
2018-10-18T15:55:25.854Z,5.50
2018-10-18T15:57:54.666Z,3.53
2018-10-18T16:00:23.435Z,6.13
2018-10-18T16:02:52.952Z,5.53
2018-10-18T16:05:21.789Z,2.63
2018-10-18T16:07:50.491Z,5.87
2018-10-18T16:10:19.095Z,4.77
2018-10-18T16:12:47.863Z,6.70
2018-10-18T16:15:17.893Z,8.40
2018-10-18T16:17:47.510Z,7.47
2018-10-18T16:20:16.212Z,4.07
2018-10-18T16:22:45.121Z,4.40
2018-10-18T16:25:13.848Z,5.33
2018-10-18T16:27:42.866Z,10.10
2018-10-18T16:30:11.840Z,8.43
2018-10-18T16:32:40.636Z,9.73
2018-10-18T16:35:09.902Z,6.70
2018-10-18T16:37:38.455Z,5.03
2018-10-18T16:40:07.370Z,8.93
2018-10-18T16:42:36.182Z,4.10
2018-10-18T16:45:05.823Z,4.37
2018-10-18T16:47:34.546Z,3.63
2018-10-18T16:50:03.279Z,7.57
2018-10-18T16:52:32.009Z,8.77
2018-10-18T16:55:00.635Z,7.77
2018-10-18T16:57:29.237Z,4.13
2018-10-18T16:59:57.895Z,4.80
2018-10-18T17:02:27.135Z,5.60
2018-10-18T17:04:55.874Z,5.03
2018-10-18T17:07:24.527Z,6.90
2018-10-18T17:09:53.239Z,5.63
2018-10-18T17:12:21.869Z,4.57
2018-10-18T17:14:50.518Z,4.83
2018-10-18T17:17:19.298Z,8.37
2018-10-18T17:19:47.881Z,9.10
2018-10-18T17:22:16.492Z,6.53
2018-10-18T17:24:45.229Z,5.93
2018-10-18T17:27:13.944Z,7.97
2018-10-18T17:29:43.193Z,5.20
2018-10-18T17:32:11.972Z,5.17
2018-10-18T17:34:40.517Z,5.97
2018-10-18T17:37:09.145Z,8.47
2018-10-18T17:39:37.753Z,4.83
2018-10-18T17:42:06.572Z,6.73
2018-10-18T17:44:35.186Z,6.30
2018-10-18T17:47:03.828Z,8.87
2018-10-18T17:49:32.637Z,8.40
2018-10-18T17:52:01.409Z,6.63
2018-10-18T17:54:30.110Z,9.03
2018-10-18T17:56:58.793Z,6.07
2018-10-18T17:59:27.550Z,7.80
2018-10-18T18:01:56.333Z,6.20
2018-10-18T18:04:25.186Z,8.77
2018-10-18T18:06:54.016Z,9.77
2018-10-18T18:09:23.507Z,9.53
2018-10-18T18:11:52.446Z,7.37
2018-10-18T18:14:21.123Z,7.60
2018-10-18T18:16:49.816Z,6.90
2018-10-18T18:19:18.637Z,10.20
2018-10-18T18:21:52.071Z,6.10
2018-10-18T18:24:20.929Z,7.67
2018-10-18T18:26:50.378Z,7.27
2018-10-18T18:29:19.177Z,7.77
2018-10-18T18:31:48.365Z,7.00
2018-10-18T18:34:17.058Z,5.87
2018-10-18T18:36:45.747Z,5.13
2018-10-18T18:39:14.513Z,7.93
2018-10-18T18:41:43.221Z,6.83
2018-10-18T18:44:11.991Z,7.33
2018-10-18T18:46:40.771Z,6.37
2018-10-18T18:49:11.993Z,7.00
2018-10-18T18:51:40.720Z,8.77
2018-10-18T18:54:12.177Z,5.67
2018-10-18T18:56:41.433Z,9.90
2018-10-18T18:59:10.232Z,8.27
2018-10-18T19:01:40.949Z,8.77
2018-10-18T19:04:09.782Z,9.27
2018-10-18T19:06:38.505Z,6.33
2018-10-18T19:09:08.215Z,6.17
2018-10-18T19:11:36.840Z,8.17
2018-10-18T19:14:06.475Z,9.53
2018-10-18T19:16:36.505Z,7.00
2018-10-18T19:19:05.771Z,7.03
2018-10-18T19:21:34.769Z,8.93
2018-10-18T19:24:03.828Z,10.53
2018-10-18T19:26:32.804Z,9.63
2018-10-18T19:29:02.244Z,6.33
2018-10-18T19:31:34.053Z,8.23
2018-10-18T19:34:02.802Z,7.87
2018-10-18T19:36:32.187Z,6.20
2018-10-18T19:39:01.040Z,6.37
2018-10-18T19:41:30.300Z,8.33
2018-10-18T19:43:59.464Z,10.03
2018-10-18T19:46:32.298Z,8.27
2018-10-18T19:49:02.313Z,5.87
2018-10-18T19:51:31.138Z,8.00
2018-10-18T19:54:00.135Z,7.87
2018-10-18T19:56:29.088Z,9.20
2018-10-18T19:58:58.002Z,10.33
2018-10-18T20:01:26.734Z,10.07
2018-10-18T20:03:55.647Z,12.13
2018-10-18T20:06:24.514Z,12.17
2018-10-18T20:08:53.273Z,9.27
2018-10-18T20:11:23.073Z,7.87
2018-10-18T20:13:51.899Z,6.33
2018-10-18T20:16:20.987Z,7.27
2018-10-18T20:18:50.462Z,8.87
2018-10-18T20:21:19.560Z,6.03
2018-10-18T20:23:48.640Z,6.90
2018-10-18T20:26:17.718Z,7.20
2018-10-18T20:28:46.574Z,7.03
2018-10-18T20:31:15.327Z,11.27
2018-10-18T20:33:43.979Z,6.10
2018-10-18T20:36:13.196Z,6.60
2018-10-18T20:38:42.375Z,7.80
2018-10-18T20:41:11.386Z,5.70
2018-10-18T20:43:40.685Z,6.70
2018-10-18T20:46:10.486Z,8.03
2018-10-18T20:48:39.682Z,8.47
2018-10-18T20:51:08.516Z,8.23
2018-10-18T20:53:37.586Z,9.23
2018-10-18T20:56:06.885Z,6.97
2018-10-18T20:58:36.537Z,11.97
2018-10-18T21:01:06.334Z,8.50
2018-10-18T21:03:35.046Z,6.50
2018-10-18T21:06:04.051Z,9.37
2018-10-18T21:08:32.943Z,6.27
2018-10-18T21:11:05.548Z,9.07
2018-10-18T21:13:34.418Z,7.73
2018-10-18T21:16:03.158Z,8.20
2018-10-18T21:18:32.036Z,9.13
2018-10-18T21:21:01.509Z,6.30
2018-10-18T21:23:30.259Z,9.97
2018-10-18T21:25:58.922Z,7.97
2018-10-18T21:28:27.614Z,9.53
2018-10-18T21:30:56.298Z,9.00
2018-10-18T21:33:25.146Z,6.27
2018-10-18T21:35:53.830Z,7.57
2018-10-18T21:38:22.424Z,7.63
2018-10-18T21:40:51.042Z,7.33
2018-10-18T21:43:19.602Z,6.23
2018-10-18T21:45:48.338Z,5.33
2018-10-18T21:48:17.856Z,7.30
2018-10-18T21:50:46.587Z,8.13
2018-10-18T21:53:15.259Z,7.20
2018-10-18T21:55:43.951Z,6.87
2018-10-18T21:58:12.606Z,6.33
2018-10-18T22:00:46.169Z,5.37
2018-10-18T22:03:15.590Z,6.67
2018-10-18T22:05:45.488Z,7.40
2018-10-18T22:08:15.442Z,4.07
2018-10-18T22:10:45.101Z,8.10
2018-10-18T22:13:13.841Z,7.27
2018-10-18T22:15:42.480Z,5.00
2018-10-18T22:18:11.113Z,6.40
2018-10-18T22:20:39.838Z,5.57
2018-10-18T22:23:08.473Z,7.63
2018-10-18T22:25:37.180Z,10.70
2018-10-18T22:28:06.084Z,5.90
2018-10-18T22:30:35.434Z,6.70
2018-10-18T22:33:04.210Z,4.40
2018-10-18T22:35:33.828Z,8.53
2018-10-18T22:38:02.424Z,8.43
2018-10-18T22:40:31.149Z,7.57
2018-10-18T22:42:59.879Z,7.67
2018-10-18T22:45:28.948Z,8.07
2018-10-18T22:47:57.727Z,8.83
2018-10-18T22:50:26.322Z,9.27
2018-10-18T22:52:59.366Z,6.70
2018-10-18T22:55:27.958Z,7.83
2018-10-18T22:57:56.678Z,5.77
2018-10-18T23:00:25.292Z,5.80
2018-10-18T23:02:54.014Z,7.13
2018-10-18T23:05:22.769Z,6.50
2018-10-18T23:07:51.366Z,7.23
2018-10-18T23:10:20.024Z,9.07
2018-10-18T23:12:49.096Z,6.60
2018-10-18T23:15:17.874Z,8.27
2018-10-18T23:17:46.321Z,8.63
2018-10-18T23:20:15.564Z,7.47
2018-10-18T23:22:44.186Z,6.27
2018-10-18T23:25:12.898Z,8.23
2018-10-18T23:27:41.517Z,6.33
2018-10-18T23:30:10.094Z,7.80
2018-10-18T23:32:38.743Z,9.03
2018-10-18T23:35:07.505Z,9.03
2018-10-18T23:37:37.158Z,9.17
2018-10-18T23:40:05.948Z,8.57
2018-10-18T23:42:34.517Z,10.10
2018-10-18T23:45:03.185Z,10.03
2018-10-18T23:47:31.776Z,8.73
2018-10-18T23:50:00.359Z,8.07
2018-10-18T23:52:29.013Z,7.93
2018-10-18T23:54:57.817Z,8.00
2018-10-18T23:57:26.534Z,9.87
2018-10-18T23:59:55.105Z,7.13
